Strathclair, Canada
Current Conditions -  °F | °C
As of 3:00 AM on Wednesday 28 Jan 2015 (Local Time) from CYBR Reporting Station
Moderate Fog Moderate Fog  
Wind Chill: 13°   Ceiling: 200
Heat Index: 27°   Visibility: 0.37mi
Dew Point: 27°   Wind: 20mph
Humidity: 100%   Direction: 60°ENE
Pressure: 29.83"   Gusts: 25mph
Location:  50.4°N, 100.4°W
Report Text: CYBR 280900Z 06017G22KT 3/8SM FZFG VV002 M03/M03 A2983 RMK FG8 RIME ON INDICATOR SLP123
Loading
Personal Weather Stations






























Interactive Weather Map New forecast layout! Learn more

10-Day Weather Forecast

Advertisements
Track Severe Weather on mobile